Pagrindinis puslapis
METAR-TAF:

METAR-TAF

Oro uostai :

Pnompenis, Kambodža

platuma: 11-33N, ilguma: 104-51E, Aukštis: 10 m

Dabartinis oras

Ataskaita buvo paskelbta 28 minutes, ne 08:00 UTC
Vėjas 7 kt iš Šiaurės/Šiaurės Rytų, svyruoja nuo Šiaurės/Šiaurės Vakarų ir Rytų/Šiaurės Rytų
Temperatūra 34°C
Drėgmė 30%
Slėgis 1011 hPa
Matomumas 10 km arba daugiau
Mažai debesys ne aukštis 1700 ft

METAR: VDPP 230800Z 02007KT 330V070 9999 FEW017 34/14 Q1011

Laikas: 15:28 (08:28 UTC)

Prognozė

Ataskaita buvo paskelbta 3 valandos ir 28 minutes, ne 05:00 UTC
Prognozė galioja nuo 23 metu 06 UTC su 23 metu 24 UTC
Vėjas 9 kt iš Šiaurės Rytų
Matomumas 10 km arba daugiau
Išsisklaidę debesys ne aukštis 1700 ft

TAF: VDPP 230500Z 2306/2324 05009KT 9999 SCT017

Orai ataskaitas ir orų prognozės (METAR, TAF).

turimą stotys yra geltonos ir raudonos taškus žemėlapyje.

Perkelti pele per norėdami pamatyti stoties vardą.

Tada spustelėkite, norėdami matyti oro stebėjimo ir prognozės.

Norėdami pakeisti žemėlapį: spustelėkite ant žalios mygtukų su juodo kryžiaus žemyn,; žalią mygtuką su brūkšneliu, jei norite nutolinti; arba žalių rodyklių gretimoms žemėlapius.


METAR-TAF: